createdAt,value
2022-08-25T00:01:32.170Z,22.22
2022-08-25T00:05:48.766Z,22.24
2022-08-25T00:58:31.152Z,22.29
2022-08-25T01:02:47.367Z,22.23
2022-08-25T01:07:04.041Z,22.27
2022-08-25T01:11:20.540Z,22.27
2022-08-25T01:15:36.727Z,22.22
2022-08-25T01:19:55.574Z,22.22
2022-08-25T01:24:16.251Z,22.26
2022-08-25T01:28:32.298Z,22.23
2022-08-25T01:32:48.958Z,22.28
2022-08-25T01:37:05.679Z,22.41
2022-08-25T01:41:55.994Z,22.40
2022-08-25T01:46:12.668Z,22.13
2022-08-25T01:50:29.151Z,22.06
2022-08-25T01:54:45.357Z,22.01
2022-08-25T01:59:01.579Z,21.88
2022-08-25T02:03:19.405Z,22.17
2022-08-25T02:07:36.554Z,22.25
2022-08-25T02:11:53.619Z,22.03
2022-08-25T02:16:10.952Z,21.89
2022-08-25T02:20:27.123Z,22.29
2022-08-25T02:24:43.204Z,21.87
2022-08-25T02:28:59.259Z,21.73
2022-08-25T02:33:15.248Z,21.87
2022-08-25T02:37:31.305Z,21.91
2022-08-25T02:41:47.425Z,21.92
2022-08-25T02:46:03.493Z,21.76
2022-08-25T02:50:22.334Z,21.74
2022-08-25T02:54:38.558Z,21.82
2022-08-25T02:58:54.813Z,21.86
2022-08-25T03:03:10.826Z,21.73
2022-08-25T03:07:26.887Z,21.70
2022-08-25T03:11:43.983Z,21.76
2022-08-25T03:16:01.328Z,21.68
2022-08-25T03:20:19.687Z,21.65
2022-08-25T03:24:35.658Z,21.78
2022-08-25T03:28:51.696Z,22.02
2022-08-25T03:33:07.869Z,21.90
2022-08-25T03:37:24.014Z,21.63
2022-08-25T03:41:40.245Z,21.46
2022-08-25T03:45:57.244Z,21.76
2022-08-25T03:50:13.982Z,21.58
2022-08-25T03:54:30.249Z,21.48
2022-08-25T03:58:46.639Z,21.45
2022-08-25T04:03:02.742Z,21.36
2022-08-25T04:07:18.755Z,21.39
2022-08-25T04:11:34.800Z,21.24
2022-08-25T04:15:51.122Z,21.30
2022-08-25T04:20:10.160Z,21.32
2022-08-25T04:24:30.090Z,21.25
2022-08-25T04:28:46.806Z,21.34
2022-08-25T04:33:02.956Z,21.30
2022-08-25T04:37:18.951Z,21.22
2022-08-25T04:41:35.144Z,21.28
2022-08-25T04:45:52.300Z,21.32
2022-08-25T04:50:08.763Z,21.20
2022-08-25T04:54:25.314Z,21.40
2022-08-25T04:58:41.763Z,21.48
2022-08-25T05:02:57.790Z,21.44
2022-08-25T05:07:13.826Z,21.34
2022-08-25T05:11:30.214Z,21.53
2022-08-25T05:16:00.225Z,21.50
2022-08-25T05:20:16.540Z,21.93
2022-08-25T05:24:32.733Z,21.90
2022-08-25T05:28:51.404Z,21.82
2022-08-25T05:33:07.958Z,21.91
2022-08-25T05:37:23.895Z,22.06
2022-08-25T05:41:39.825Z,22.24
2022-08-25T05:45:57.908Z,22.26
2022-08-25T05:50:13.890Z,22.46
2022-08-25T05:54:31.721Z,22.58
2022-08-25T05:58:48.181Z,22.67
2022-08-25T06:03:04.189Z,22.63
2022-08-25T06:07:20.551Z,22.86
2022-08-25T06:11:38.151Z,22.96
2022-08-25T06:15:58.888Z,23.32
2022-08-25T06:20:18.287Z,23.60
2022-08-25T06:24:34.421Z,23.54
2022-08-25T06:28:51.523Z,23.59
2022-08-25T06:33:07.481Z,24.02
2022-08-25T06:37:25.281Z,23.82
2022-08-25T06:41:41.391Z,23.86
2022-08-25T06:45:57.386Z,24.23
2022-08-25T06:50:13.605Z,24.15
2022-08-25T06:54:29.833Z,24.33
2022-08-25T06:58:46.202Z,23.72
2022-08-25T07:03:02.761Z,24.10
2022-08-25T07:07:19.433Z,24.29
2022-08-25T07:11:35.552Z,24.69
2022-08-25T07:15:55.341Z,24.49
2022-08-25T07:20:13.754Z,24.34
2022-08-25T07:24:29.957Z,24.68
2022-08-25T07:28:47.429Z,24.96
2022-08-25T07:33:06.732Z,25.06
2022-08-25T07:37:48.446Z,25.19
2022-08-25T07:42:00.121Z,25.08
2022-08-25T07:46:18.086Z,25.60
2022-08-25T07:50:35.486Z,25.86
2022-08-25T07:54:54.039Z,25.84
2022-08-25T07:59:12.550Z,25.67
2022-08-25T08:03:45.092Z,25.96
2022-08-25T08:08:06.540Z,25.36
2022-08-25T08:12:23.568Z,26.20
2022-08-25T08:16:40.161Z,26.59
2022-08-25T08:20:58.219Z,26.71
2022-08-25T08:25:18.649Z,26.81
2022-08-25T08:29:38.256Z,26.65
2022-08-25T08:33:55.679Z,26.91
2022-08-25T08:38:17.310Z,27.26
2022-08-25T08:42:51.994Z,27.32
2022-08-25T08:47:36.400Z,26.84
2022-08-25T08:51:59.658Z,27.54
2022-08-25T08:56:23.655Z,27.46
2022-08-25T09:00:52.616Z,27.25
2022-08-25T09:05:12.436Z,27.37
2022-08-25T09:09:35.755Z,27.78
2022-08-25T09:14:18.537Z,27.81
2022-08-25T09:18:52.721Z,28.01
2022-08-25T09:23:26.513Z,28.14
2022-08-25T09:28:07.922Z,27.56
2022-08-25T09:32:31.448Z,28.01
2022-08-25T09:36:51.025Z,28.39
2022-08-25T09:41:08.683Z,28.65
2022-08-25T09:45:35.921Z,28.77
2022-08-25T09:50:04.565Z,28.90
2022-08-25T09:54:25.374Z,28.94
2022-08-25T09:58:41.665Z,29.37
2022-08-25T10:03:22.685Z,29.59
2022-08-25T10:07:51.908Z,29.90
2022-08-25T10:12:42.533Z,30.18
2022-08-25T10:17:27.592Z,29.53
2022-08-25T10:21:44.289Z,30.25
2022-08-25T10:26:08.853Z,30.03
2022-08-25T10:31:00.295Z,29.83
2022-08-25T10:35:23.126Z,30.09
2022-08-25T10:39:44.109Z,29.93
2022-08-25T10:45:03.077Z,28.96
2022-08-25T10:49:30.921Z,30.34
2022-08-25T10:54:16.375Z,30.68
2022-08-25T10:58:48.482Z,31.05
2022-08-25T11:03:26.794Z,31.38
2022-08-25T11:08:13.495Z,31.79
2022-08-25T11:12:35.096Z,31.46
2022-08-25T11:16:58.205Z,32.41
2022-08-25T11:21:18.953Z,31.42
2022-08-25T11:25:43.918Z,32.04
2022-08-25T11:30:06.150Z,32.66
2022-08-25T11:34:23.408Z,32.04
2022-08-25T11:38:57.330Z,31.98
2022-08-25T11:43:27.577Z,32.56
2022-08-25T11:48:22.153Z,32.96
2022-08-25T11:52:49.327Z,33.56
2022-08-25T11:57:17.228Z,33.17
2022-08-25T12:01:40.573Z,33.12
2022-08-25T12:06:16.665Z,33.40
2022-08-25T12:10:52.787Z,33.54
2022-08-25T12:15:20.599Z,33.27
2022-08-25T12:19:38.065Z,33.04
2022-08-25T12:24:15.929Z,32.44
2022-08-25T12:28:42.438Z,32.81
2022-08-25T12:33:20.349Z,32.38
2022-08-25T12:37:53.129Z,32.80
2022-08-25T12:42:26.255Z,33.18
2022-08-25T12:46:44.753Z,33.21
2022-08-25T12:51:17.436Z,32.62
2022-08-25T12:55:33.698Z,32.73
2022-08-25T12:59:56.430Z,33.09
2022-08-25T13:04:24.313Z,33.00
2022-08-25T13:08:46.654Z,33.36
2022-08-25T13:13:18.048Z,32.92
2022-08-25T13:17:35.722Z,33.02
2022-08-25T13:21:51.908Z,32.48
2022-08-25T13:26:21.411Z,31.98
2022-08-25T13:30:39.282Z,32.73
2022-08-25T13:35:12.080Z,32.86
2022-08-25T13:39:53.107Z,33.75
2022-08-25T13:44:13.224Z,34.65
2022-08-25T13:48:49.588Z,35.28
2022-08-25T13:53:11.559Z,35.59
2022-08-25T13:57:31.166Z,35.62
2022-08-25T14:01:49.933Z,35.11
2022-08-25T14:06:08.276Z,34.12
2022-08-25T14:10:42.315Z,34.85
2022-08-25T14:15:13.770Z,34.42
2022-08-25T14:19:30.786Z,34.56
2022-08-25T14:23:46.806Z,33.15
2022-08-25T14:28:07.372Z,34.08
2022-08-25T14:32:32.979Z,34.71
2022-08-25T14:36:49.985Z,34.86
2022-08-25T14:45:28.335Z,35.13
2022-08-25T14:49:45.961Z,34.54
2022-08-25T14:54:05.495Z,34.15
2022-08-25T14:58:26.018Z,34.22
2022-08-25T15:02:45.710Z,34.28
2022-08-25T15:07:22.775Z,34.13
2022-08-25T15:11:52.307Z,34.38
2022-08-25T15:16:11.771Z,35.03
2022-08-25T15:20:27.958Z,35.14
2022-08-25T15:24:45.375Z,35.62
2022-08-25T15:29:01.358Z,35.65
2022-08-25T15:33:17.633Z,35.47
2022-08-25T15:37:35.745Z,35.68
2022-08-25T15:41:53.820Z,35.80
2022-08-25T15:46:09.962Z,35.61
2022-08-25T15:50:26.988Z,35.31
2022-08-25T15:54:43.025Z,35.57
2022-08-25T15:59:03.396Z,35.83
2022-08-25T16:03:19.442Z,35.71
2022-08-25T16:07:36.298Z,35.49
2022-08-25T16:11:56.302Z,35.06
2022-08-25T16:16:13.710Z,35.19
2022-08-25T16:20:31.050Z,35.13
2022-08-25T16:24:47.237Z,34.83
2022-08-25T16:29:06.433Z,34.72
2022-08-25T16:33:22.993Z,34.47
2022-08-25T16:37:39.493Z,34.33
2022-08-25T16:41:56.633Z,34.07
2022-08-25T16:46:15.476Z,33.85
2022-08-25T16:50:34.637Z,33.81
2022-08-25T16:55:09.596Z,33.72
2022-08-25T16:59:26.613Z,33.63
2022-08-25T17:03:44.168Z,33.38
2022-08-25T17:08:19.785Z,33.15
2022-08-25T17:12:35.950Z,33.06
2022-08-25T17:16:54.843Z,32.80
2022-08-25T17:21:12.924Z,32.71
2022-08-25T17:25:36.971Z,32.57
2022-08-25T17:29:57.341Z,32.22
2022-08-25T17:34:16.549Z,31.83
2022-08-25T17:38:33.902Z,31.58
2022-08-25T17:42:49.997Z,31.21
2022-08-25T17:47:07.924Z,30.89
2022-08-25T17:51:24.159Z,30.56
2022-08-25T17:55:43.109Z,30.34
2022-08-25T17:59:59.817Z,30.00
2022-08-25T18:04:23.323Z,29.80
2022-08-25T18:08:45.261Z,29.80
2022-08-25T18:13:08.183Z,29.56
2022-08-25T18:17:24.180Z,29.52
2022-08-25T18:21:43.354Z,29.43
2022-08-25T18:26:00.935Z,29.24
2022-08-25T18:30:17.351Z,28.96
2022-08-25T18:34:34.059Z,28.81
2022-08-25T18:39:10.619Z,28.64
2022-08-25T18:43:31.915Z,28.73
2022-08-25T18:47:56.449Z,28.59
2022-08-25T18:52:13.045Z,28.41
2022-08-25T18:56:29.468Z,28.32
2022-08-25T19:00:45.982Z,28.24
2022-08-25T19:05:07.417Z,28.05
2022-08-25T19:09:23.806Z,27.96
2022-08-25T19:13:40.397Z,27.74
2022-08-25T19:17:58.941Z,27.68
2022-08-25T19:22:38.219Z,27.69
2022-08-25T19:26:54.482Z,27.60
2022-08-25T19:31:10.877Z,27.57
2022-08-25T19:35:39.466Z,27.53
2022-08-25T19:40:02.527Z,27.41
2022-08-25T19:44:21.059Z,27.32
2022-08-25T19:48:37.293Z,27.22
2022-08-25T19:52:54.106Z,27.18
2022-08-25T19:57:11.550Z,26.98
2022-08-25T20:01:27.893Z,27.02
2022-08-25T20:05:43.950Z,26.95
2022-08-25T20:10:08.060Z,26.86
2022-08-25T20:14:30.121Z,26.87
2022-08-25T20:18:46.042Z,26.64
2022-08-25T20:23:21.083Z,26.54
2022-08-25T20:27:41.539Z,26.69
2022-08-25T20:31:57.567Z,26.61
2022-08-25T20:36:17.676Z,26.42
2022-08-25T20:40:35.062Z,26.31
2022-08-25T20:44:53.678Z,26.32
2022-08-25T20:49:09.628Z,26.22
2022-08-25T20:53:26.070Z,26.19
2022-08-25T20:57:42.244Z,26.09
2022-08-25T21:01:59.525Z,26.10
2022-08-25T21:06:17.148Z,26.00
2022-08-25T21:10:33.798Z,25.97
2022-08-25T21:14:50.862Z,25.96
2022-08-25T21:19:08.836Z,25.98
2022-08-25T21:23:26.877Z,25.85
2022-08-25T21:27:43.632Z,25.85
2022-08-25T21:32:00.001Z,25.75
2022-08-25T21:36:17.010Z,25.71
2022-08-25T21:40:37.098Z,25.75
2022-08-25T21:44:53.262Z,25.47
2022-08-25T21:49:09.618Z,25.38
2022-08-25T21:53:25.651Z,25.40
2022-08-25T21:57:43.878Z,25.28
2022-08-25T22:02:02.452Z,25.38
2022-08-25T22:06:21.970Z,25.36
2022-08-25T22:10:44.728Z,25.42
2022-08-25T22:15:00.808Z,25.44
2022-08-25T22:19:17.508Z,25.44
2022-08-25T22:23:33.470Z,25.28
2022-08-25T22:28:00.470Z,25.25
2022-08-25T22:32:16.578Z,25.11
2022-08-25T22:36:37.385Z,25.07
2022-08-25T22:40:53.379Z,24.97
2022-08-25T22:45:11.240Z,24.92
2022-08-25T22:49:29.277Z,25.06
2022-08-25T22:53:46.738Z,25.13
2022-08-25T22:58:02.912Z,25.08
2022-08-25T23:02:18.973Z,24.87
2022-08-25T23:06:35.854Z,24.75
2022-08-25T23:10:54.232Z,24.66
2022-08-25T23:15:14.161Z,24.71
2022-08-25T23:19:30.277Z,24.50
2022-08-25T23:23:47.997Z,24.51
2022-08-25T23:28:05.098Z,24.53
2022-08-25T23:32:21.427Z,24.34
2022-08-25T23:36:37.478Z,24.33
2022-08-25T23:40:53.552Z,24.35
2022-08-25T23:45:10.676Z,24.26
2022-08-25T23:49:27.399Z,24.39
2022-08-25T23:53:43.577Z,24.21
2022-08-25T23:57:59.729Z,24.14
